createdAt,value
2023-05-17T00:00:49.584Z,85.50
2023-05-17T00:03:16.448Z,84.89
2023-05-17T00:05:43.275Z,85.06
2023-05-17T00:08:09.953Z,85.10
2023-05-17T00:10:36.636Z,85.28
2023-05-17T00:13:04.474Z,85.51
2023-05-17T00:15:31.350Z,85.86
2023-05-17T00:18:00.704Z,85.53
2023-05-17T00:20:27.911Z,85.60
2023-05-17T00:22:54.580Z,86.21
2023-05-17T00:25:21.287Z,86.16
2023-05-17T00:27:47.847Z,85.91
2023-05-17T00:30:14.769Z,86.42
2023-05-17T00:32:41.594Z,86.53
2023-05-17T00:35:08.386Z,86.71
2023-05-17T00:37:35.018Z,86.24
2023-05-17T00:40:01.626Z,86.16
2023-05-17T00:42:28.346Z,86.65
2023-05-17T00:44:55.010Z,86.38
2023-05-17T00:47:21.759Z,86.67
2023-05-17T00:49:48.735Z,87.11
2023-05-17T00:52:15.693Z,87.43
2023-05-17T00:54:42.583Z,87.39
2023-05-17T00:57:09.710Z,87.03
2023-05-17T00:59:37.526Z,87.41
2023-05-17T01:02:04.792Z,87.55
2023-05-17T01:04:32.207Z,87.73
2023-05-17T01:06:59.161Z,87.38
2023-05-17T01:09:25.903Z,87.51
2023-05-17T01:12:26.431Z,87.25
2023-05-17T01:15:13.011Z,87.36
2023-05-17T01:17:57.578Z,87.74
2023-05-17T01:20:34.633Z,87.38
2023-05-17T01:23:17.668Z,87.95
2023-05-17T01:25:47.432Z,87.78
2023-05-17T01:28:15.049Z,87.34
2023-05-17T01:30:42.804Z,87.38
2023-05-17T01:33:10.103Z,87.75
2023-05-17T01:35:36.911Z,87.53
2023-05-17T01:38:03.616Z,87.55
2023-05-17T01:40:35.123Z,87.14
2023-05-17T01:43:18.038Z,87.38
2023-05-17T01:45:57.241Z,87.44
2023-05-17T01:48:31.715Z,86.95
2023-05-17T01:50:59.953Z,87.04
2023-05-17T01:53:43.293Z,87.21
2023-05-17T01:56:15.453Z,86.88
2023-05-17T01:58:49.002Z,87.11
2023-05-17T02:01:17.310Z,87.03
2023-05-17T02:03:44.710Z,86.87
2023-05-17T02:06:11.933Z,86.80
2023-05-17T02:08:38.695Z,86.79
2023-05-17T02:11:05.382Z,86.80
2023-05-17T02:13:32.059Z,86.87
2023-05-17T02:16:07.220Z,86.51
2023-05-17T02:18:35.737Z,86.45
2023-05-17T02:21:02.712Z,86.51
2023-05-17T02:23:29.328Z,86.71
2023-05-17T02:25:55.878Z,86.88
2023-05-17T02:28:27.050Z,86.52
2023-05-17T02:30:54.233Z,86.24
2023-05-17T02:33:21.321Z,86.37
2023-05-17T02:35:50.241Z,86.64
2023-05-17T02:38:16.971Z,86.66
2023-05-17T02:40:43.612Z,86.16
2023-05-17T02:43:10.366Z,86.28
2023-05-17T02:45:37.024Z,86.62
2023-05-17T02:48:03.843Z,86.32
2023-05-17T02:50:33.384Z,86.94
2023-05-17T02:52:59.974Z,86.28
2023-05-17T02:55:26.984Z,86.73
2023-05-17T02:57:53.810Z,86.69
2023-05-17T03:00:20.598Z,86.35
2023-05-17T03:02:48.239Z,86.25
2023-05-17T03:05:15.113Z,86.08
2023-05-17T03:07:41.721Z,86.02
2023-05-17T03:10:08.846Z,86.37
2023-05-17T03:12:36.771Z,86.16
2023-05-17T03:15:04.321Z,86.76
2023-05-17T03:17:31.545Z,86.72
2023-05-17T03:19:58.330Z,86.37
2023-05-17T03:22:24.907Z,86.61
2023-05-17T03:24:51.520Z,86.54
2023-05-17T03:27:18.182Z,85.99
2023-05-17T03:29:44.827Z,86.25
2023-05-17T03:32:11.496Z,86.32
2023-05-17T03:34:38.145Z,86.27
2023-05-17T03:37:04.964Z,86.84
2023-05-17T03:39:31.664Z,86.39
2023-05-17T03:41:58.374Z,86.45
2023-05-17T03:44:25.136Z,86.80
2023-05-17T03:46:51.931Z,86.71
2023-05-17T03:49:18.528Z,86.62
2023-05-17T03:51:45.238Z,86.30
2023-05-17T03:54:12.043Z,86.47
2023-05-17T03:56:38.863Z,86.40
2023-05-17T03:59:08.592Z,86.18
2023-05-17T04:01:35.151Z,86.25
2023-05-17T04:04:04.530Z,86.13
2023-05-17T04:06:31.336Z,86.73
2023-05-17T04:08:59.657Z,86.52
2023-05-17T04:11:27.599Z,86.48
2023-05-17T04:13:55.256Z,86.20
2023-05-17T04:16:22.507Z,85.99
2023-05-17T04:18:52.846Z,86.07
2023-05-17T04:21:19.741Z,86.72
2023-05-17T04:23:46.373Z,86.17
2023-05-17T04:26:12.961Z,86.39
2023-05-17T04:28:39.714Z,86.38
2023-05-17T04:31:09.536Z,86.36
2023-05-17T04:33:37.125Z,86.10
2023-05-17T04:36:04.013Z,85.84
2023-05-17T04:38:31.134Z,85.81
2023-05-17T04:41:04.862Z,84.73
2023-05-17T04:43:33.840Z,84.52
2023-05-17T04:46:01.079Z,84.01
2023-05-17T04:48:27.849Z,83.95
2023-05-17T04:50:54.698Z,83.62
2023-05-17T04:53:21.844Z,82.66
2023-05-17T04:55:48.740Z,82.41
2023-05-17T04:58:15.331Z,81.96
2023-05-17T05:00:42.016Z,81.48
2023-05-17T05:03:08.829Z,81.54
2023-05-17T05:05:35.736Z,80.69
2023-05-17T05:08:02.538Z,80.49
2023-05-17T05:10:29.089Z,79.44
2023-05-17T05:12:55.677Z,78.68
2023-05-17T05:15:23.840Z,78.05
2023-05-17T05:17:50.769Z,77.21
2023-05-17T05:20:17.476Z,76.60
2023-05-17T05:22:44.039Z,76.00
2023-05-17T05:25:10.880Z,74.97
2023-05-17T05:27:37.512Z,71.45
2023-05-17T05:30:04.463Z,66.71
2023-05-17T05:32:31.074Z,63.89
2023-05-17T05:34:57.725Z,62.52
2023-05-17T05:37:24.376Z,59.71
2023-05-17T05:39:51.150Z,58.99
2023-05-17T05:42:17.845Z,56.90
2023-05-17T05:44:44.438Z,56.49
2023-05-17T05:47:11.087Z,56.10
2023-05-17T05:49:37.714Z,55.17
2023-05-17T05:52:04.577Z,54.44
2023-05-17T05:54:31.285Z,56.32
2023-05-17T05:56:57.966Z,59.49
2023-05-17T05:59:24.580Z,61.52
2023-05-17T06:01:51.885Z,61.51
2023-05-17T06:04:20.977Z,62.55
2023-05-17T06:06:49.701Z,63.35
2023-05-17T06:09:16.970Z,63.40
2023-05-17T06:11:43.700Z,64.15
2023-05-17T06:14:11.262Z,64.61
2023-05-17T06:16:37.941Z,65.12
2023-05-17T06:19:04.912Z,62.75
2023-05-17T06:21:31.528Z,60.52
2023-05-17T06:23:58.583Z,58.72
2023-05-17T06:26:25.432Z,58.18
2023-05-17T06:28:52.004Z,58.96
2023-05-17T06:31:20.933Z,59.72
2023-05-17T06:33:47.847Z,58.47
2023-05-17T06:36:16.459Z,58.84
2023-05-17T06:38:43.345Z,58.42
2023-05-17T06:41:10.120Z,58.41
2023-05-17T06:43:39.486Z,58.74
2023-05-17T06:46:06.218Z,57.56
2023-05-17T06:48:33.076Z,56.37
2023-05-17T06:51:00.449Z,56.20
2023-05-17T06:53:27.470Z,56.26
2023-05-17T06:55:54.545Z,56.88
2023-05-17T06:58:21.293Z,57.25
2023-05-17T07:00:49.256Z,56.98
2023-05-17T07:03:16.492Z,58.49
2023-05-17T07:05:43.273Z,58.60
2023-05-17T07:08:10.096Z,57.19
2023-05-17T07:10:39.907Z,56.48
2023-05-17T07:13:06.600Z,56.53
2023-05-17T07:15:33.241Z,59.04
2023-05-17T07:18:05.246Z,59.05
2023-05-17T07:20:31.997Z,58.74
2023-05-17T07:22:58.496Z,58.26
2023-05-17T07:25:25.121Z,59.42
2023-05-17T07:27:51.697Z,60.14
2023-05-17T07:30:18.299Z,59.93
2023-05-17T07:32:45.017Z,60.43
2023-05-17T07:35:11.676Z,59.91
2023-05-17T07:37:58.400Z,59.67
2023-05-17T07:40:25.184Z,58.14
2023-05-17T07:42:52.077Z,58.92
2023-05-17T07:45:18.845Z,58.47
2023-05-17T07:47:45.462Z,58.64
2023-05-17T07:50:12.397Z,57.08
2023-05-17T07:52:41.994Z,56.85
2023-05-17T07:55:09.311Z,54.20
2023-05-17T07:57:35.870Z,54.81
2023-05-17T08:00:02.617Z,54.40
2023-05-17T08:02:29.520Z,53.42
2023-05-17T08:04:56.442Z,53.39
2023-05-17T08:07:23.119Z,53.19
2023-05-17T08:09:49.870Z,54.11
2023-05-17T08:12:16.426Z,54.42
2023-05-17T08:14:42.991Z,55.09
2023-05-17T08:17:09.610Z,54.65
2023-05-17T08:19:36.358Z,52.99
2023-05-17T08:22:03.379Z,52.90
2023-05-17T08:24:29.849Z,54.01
2023-05-17T08:26:56.689Z,52.81
2023-05-17T08:29:23.351Z,51.79
2023-05-17T08:31:49.931Z,51.80
2023-05-17T08:34:16.584Z,50.85
2023-05-17T08:36:44.574Z,50.11
2023-05-17T08:39:11.582Z,51.93
2023-05-17T08:41:39.128Z,52.80
2023-05-17T08:44:06.475Z,53.22
2023-05-17T08:46:36.914Z,52.66
2023-05-17T08:49:06.146Z,53.84
2023-05-17T08:51:32.804Z,52.37
2023-05-17T08:53:59.470Z,50.81
2023-05-17T08:56:26.165Z,51.47
2023-05-17T08:58:57.858Z,49.49
2023-05-17T09:01:27.025Z,46.49
2023-05-17T09:03:55.008Z,48.39
2023-05-17T09:06:23.590Z,48.29
2023-05-17T09:08:53.006Z,47.09
2023-05-17T09:11:38.911Z,47.18
2023-05-17T09:14:06.865Z,49.00
2023-05-17T09:16:37.474Z,50.00
2023-05-17T09:19:06.128Z,49.71
2023-05-17T09:21:34.079Z,49.17
2023-05-17T09:26:45.562Z,47.98
2023-05-17T09:29:16.754Z,47.49
2023-05-17T09:31:44.479Z,46.68
2023-05-17T09:34:13.044Z,47.02
2023-05-17T09:36:43.952Z,47.43
2023-05-17T09:39:13.588Z,46.97
2023-05-17T09:41:46.524Z,47.18
2023-05-17T09:44:14.092Z,46.63
2023-05-17T09:46:48.294Z,44.67
2023-05-17T09:49:16.875Z,46.78
2023-05-17T09:51:45.503Z,46.56
2023-05-17T09:54:12.185Z,43.94
2023-05-17T09:56:40.427Z,45.39
2023-05-17T09:59:14.570Z,42.67
2023-05-17T10:01:42.696Z,44.36
2023-05-17T10:04:10.867Z,45.76
2023-05-17T10:06:46.484Z,44.53
2023-05-17T10:09:18.751Z,44.44
2023-05-17T10:11:47.740Z,44.45
2023-05-17T10:14:34.972Z,43.95
2023-05-17T10:17:03.332Z,42.87
2023-05-17T10:19:31.330Z,43.34
2023-05-17T10:22:14.709Z,41.86
2023-05-17T10:24:49.347Z,42.27
2023-05-17T10:27:17.812Z,41.71
2023-05-17T10:29:45.874Z,39.88
2023-05-17T10:32:14.480Z,43.60
2023-05-17T10:34:40.976Z,42.89
2023-05-17T10:37:07.933Z,41.89
2023-05-17T10:39:38.826Z,41.98
2023-05-17T10:42:14.815Z,40.69
2023-05-17T10:44:43.826Z,43.71
2023-05-17T10:47:12.095Z,43.70
2023-05-17T10:49:43.124Z,42.34
2023-05-17T10:52:17.616Z,40.33
2023-05-17T10:54:47.768Z,40.52
2023-05-17T10:57:22.568Z,41.72
2023-05-17T10:59:59.987Z,41.52
2023-05-17T11:02:28.222Z,41.85
2023-05-17T11:04:56.510Z,41.85
2023-05-17T11:07:27.274Z,41.03
2023-05-17T11:09:55.698Z,42.19
2023-05-17T11:12:43.007Z,41.64
2023-05-17T11:15:14.676Z,41.30
2023-05-17T11:17:44.338Z,41.31
2023-05-17T11:20:31.775Z,41.85
2023-05-17T11:23:08.060Z,42.63
2023-05-17T11:25:40.973Z,42.03
2023-05-17T11:28:22.459Z,41.70
2023-05-17T11:30:53.765Z,43.37
2023-05-17T11:33:33.218Z,42.77
2023-05-17T11:36:05.130Z,40.28
2023-05-17T11:38:32.863Z,39.08
2023-05-17T11:43:49.447Z,38.76
2023-05-17T11:46:20.973Z,39.33
2023-05-17T11:48:52.451Z,37.82
2023-05-17T11:51:22.588Z,38.39
2023-05-17T11:53:51.388Z,38.61
2023-05-17T11:56:22.205Z,40.39
2023-05-17T11:58:52.855Z,40.42
2023-05-17T12:01:19.487Z,37.46
2023-05-17T12:03:47.558Z,40.28
2023-05-17T12:06:17.431Z,38.20
2023-05-17T12:08:45.692Z,38.71
2023-05-17T12:11:15.586Z,39.96
2023-05-17T12:13:42.753Z,41.99
2023-05-17T12:16:16.798Z,38.88
2023-05-17T12:18:48.331Z,42.50
2023-05-17T12:21:16.403Z,40.46
2023-05-17T12:23:46.303Z,38.29
2023-05-17T12:26:16.205Z,34.86
2023-05-17T12:28:53.291Z,36.88
2023-05-17T12:31:34.382Z,36.65
2023-05-17T12:34:04.253Z,37.67
2023-05-17T12:36:33.588Z,38.48
2023-05-17T12:39:02.312Z,37.13
2023-05-17T12:41:30.350Z,37.16
2023-05-17T12:44:13.613Z,37.72
2023-05-17T12:46:41.903Z,36.23
2023-05-17T12:49:09.646Z,37.43
2023-05-17T12:51:46.475Z,36.17
2023-05-17T12:54:27.429Z,37.51
2023-05-17T12:56:55.179Z,36.45
2023-05-17T12:59:21.940Z,32.22
2023-05-17T13:01:56.577Z,31.61
2023-05-17T13:04:34.443Z,33.39
2023-05-17T13:07:03.414Z,33.17
2023-05-17T13:09:31.511Z,32.87
2023-05-17T13:12:03.222Z,33.60
2023-05-17T13:14:41.984Z,34.58
2023-05-17T13:17:11.321Z,33.51
2023-05-17T13:19:38.689Z,33.60
2023-05-17T13:22:06.689Z,33.60
2023-05-17T13:24:39.971Z,34.25
2023-05-17T13:27:07.830Z,30.91
2023-05-17T13:29:40.088Z,32.39
2023-05-17T13:32:08.327Z,32.11
2023-05-17T13:34:35.237Z,31.45
2023-05-17T13:37:03.266Z,31.96
2023-05-17T13:39:29.886Z,33.80
2023-05-17T13:41:56.810Z,33.54
2023-05-17T13:44:23.538Z,33.16
2023-05-17T13:46:50.362Z,31.24
2023-05-17T13:49:17.522Z,32.68
2023-05-17T13:51:45.221Z,31.10
2023-05-17T13:54:11.825Z,30.78
2023-05-17T13:56:38.754Z,30.78
2023-05-17T13:59:05.655Z,30.85
2023-05-17T14:01:32.142Z,28.04
2023-05-17T14:04:00.999Z,29.22
2023-05-17T14:06:28.220Z,27.70
2023-05-17T14:08:57.359Z,28.70
2023-05-17T14:11:24.003Z,28.10
2023-05-17T14:13:50.620Z,30.32
2023-05-17T14:16:17.339Z,30.53
2023-05-17T14:18:44.021Z,28.39
2023-05-17T14:21:10.691Z,29.23
2023-05-17T14:23:37.565Z,31.71
2023-05-17T14:26:07.188Z,28.71
2023-05-17T14:28:36.622Z,30.50
2023-05-17T14:31:06.351Z,30.11
2023-05-17T14:33:32.915Z,27.87
2023-05-17T14:35:59.514Z,29.02
2023-05-17T14:38:26.086Z,30.16
2023-05-17T14:40:52.584Z,30.31
2023-05-17T14:43:20.410Z,30.30
2023-05-17T14:45:47.146Z,30.27
2023-05-17T14:48:14.025Z,28.40
2023-05-17T14:50:41.063Z,29.07
2023-05-17T14:53:07.643Z,29.18
2023-05-17T14:55:34.156Z,28.37
2023-05-17T14:58:02.089Z,28.96
2023-05-17T15:00:28.650Z,28.35
2023-05-17T15:02:55.316Z,26.13
2023-05-17T15:05:21.966Z,24.66
2023-05-17T15:07:49.078Z,26.57
2023-05-17T15:10:16.203Z,26.38
2023-05-17T15:12:42.726Z,26.27
2023-05-17T15:15:09.577Z,26.20
2023-05-17T15:17:36.697Z,25.13
2023-05-17T15:20:03.859Z,25.34
2023-05-17T15:22:30.400Z,25.48
2023-05-17T15:24:58.367Z,25.70
2023-05-17T15:27:24.937Z,26.47
2023-05-17T15:29:51.365Z,26.94
2023-05-17T15:32:17.854Z,24.80
2023-05-17T15:34:45.348Z,26.05
2023-05-17T15:37:12.109Z,25.30
2023-05-17T15:39:38.669Z,26.10
2023-05-17T15:42:05.828Z,29.98
2023-05-17T15:44:32.342Z,31.11
2023-05-17T15:47:00.376Z,32.71
2023-05-17T15:49:28.895Z,35.46
2023-05-17T15:51:55.430Z,36.97
2023-05-17T15:54:22.131Z,38.05
2023-05-17T15:56:48.652Z,36.32
2023-05-17T15:59:16.091Z,37.50
2023-05-17T16:01:46.013Z,40.05
2023-05-17T16:04:13.738Z,39.72
2023-05-17T16:06:40.468Z,41.00
2023-05-17T16:09:07.426Z,39.26
2023-05-17T16:11:34.223Z,40.47
2023-05-17T16:14:00.856Z,42.83
2023-05-17T16:16:27.345Z,43.03
2023-05-17T16:18:54.155Z,42.79
2023-05-17T16:21:20.858Z,44.44
2023-05-17T16:23:47.626Z,44.99
2023-05-17T16:26:14.819Z,45.14
2023-05-17T16:28:41.542Z,44.63
2023-05-17T16:31:08.183Z,47.26
2023-05-17T16:33:35.216Z,45.56
2023-05-17T16:36:06.060Z,45.29
2023-05-17T16:38:32.680Z,46.01
2023-05-17T16:41:03.196Z,45.48
2023-05-17T16:43:31.085Z,45.18
2023-05-17T16:45:57.669Z,45.31
2023-05-17T16:48:24.162Z,46.84
2023-05-17T16:50:50.779Z,46.42
2023-05-17T16:53:17.453Z,46.39
2023-05-17T16:55:44.036Z,46.03
2023-05-17T16:58:10.976Z,45.80
2023-05-17T17:00:38.007Z,45.88
2023-05-17T17:03:07.308Z,46.32
2023-05-17T17:05:35.709Z,46.67
2023-05-17T17:08:02.322Z,47.78
2023-05-17T17:10:29.057Z,46.55
2023-05-17T17:12:55.712Z,47.52
2023-05-17T17:15:23.692Z,47.48
2023-05-17T17:17:50.457Z,48.58
2023-05-17T17:20:17.748Z,48.43
2023-05-17T17:22:44.332Z,47.77
2023-05-17T17:25:11.107Z,47.88
2023-05-17T17:27:40.329Z,48.76
2023-05-17T17:30:07.686Z,49.14
2023-05-17T17:32:34.443Z,50.00
2023-05-17T17:35:01.158Z,49.87
2023-05-17T17:37:27.711Z,49.04
2023-05-17T17:39:54.388Z,49.61
2023-05-17T17:42:20.965Z,49.92
2023-05-17T17:44:47.538Z,50.08
2023-05-17T17:47:14.423Z,51.68
2023-05-17T17:49:41.277Z,51.67
2023-05-17T17:52:07.860Z,51.47
2023-05-17T17:54:34.422Z,51.52
2023-05-17T17:57:02.613Z,51.98
2023-05-17T17:59:29.383Z,52.53
2023-05-17T18:01:56.151Z,52.80
2023-05-17T18:04:22.873Z,53.50
2023-05-17T18:06:50.244Z,52.72
2023-05-17T18:09:16.893Z,52.72
2023-05-17T18:11:43.453Z,53.02
2023-05-17T18:14:10.268Z,53.28
2023-05-17T18:16:37.172Z,53.61
2023-05-17T18:19:04.092Z,53.45
2023-05-17T18:21:30.702Z,52.90
2023-05-17T18:23:57.291Z,54.46
2023-05-17T18:26:23.839Z,53.83
2023-05-17T18:28:51.191Z,53.76
2023-05-17T18:31:18.764Z,53.87
2023-05-17T18:33:45.704Z,53.34
2023-05-17T18:36:12.500Z,53.37
2023-05-17T18:38:39.312Z,53.15
2023-05-17T18:41:06.597Z,54.08
2023-05-17T18:43:33.230Z,54.31
2023-05-17T18:45:59.804Z,53.65
2023-05-17T18:48:28.036Z,54.12
2023-05-17T18:50:54.772Z,54.22
2023-05-17T18:53:21.282Z,54.48
2023-05-17T18:55:47.881Z,54.07
2023-05-17T18:58:14.490Z,54.03
2023-05-17T19:00:41.181Z,54.70
2023-05-17T19:03:07.875Z,55.04
2023-05-17T19:05:34.688Z,54.87
2023-05-17T19:08:03.641Z,55.16
2023-05-17T19:10:30.479Z,55.24
2023-05-17T19:12:57.201Z,56.07
2023-05-17T19:15:23.775Z,56.54
2023-05-17T19:17:50.939Z,56.20
2023-05-17T19:20:18.083Z,57.14
2023-05-17T19:22:44.700Z,57.34
2023-05-17T19:25:11.197Z,57.15
2023-05-17T19:27:43.479Z,57.98
2023-05-17T19:30:10.423Z,58.71
2023-05-17T19:32:36.923Z,58.62
2023-05-17T19:35:03.607Z,58.84
2023-05-17T19:37:30.150Z,58.50
2023-05-17T19:39:58.792Z,59.36
2023-05-17T19:42:25.436Z,59.31
2023-05-17T19:44:51.876Z,59.72
2023-05-17T19:47:18.369Z,60.16
2023-05-17T19:49:44.891Z,60.51
2023-05-17T19:52:11.454Z,59.99
2023-05-17T19:54:38.088Z,60.79
2023-05-17T19:57:08.176Z,60.45
2023-05-17T19:59:34.984Z,61.04
2023-05-17T20:02:01.720Z,61.57
2023-05-17T20:04:28.362Z,61.44
2023-05-17T20:06:54.968Z,61.84
2023-05-17T20:09:21.907Z,62.14
2023-05-17T20:11:48.737Z,62.24
2023-05-17T20:14:16.166Z,62.47
2023-05-17T20:16:42.873Z,62.73
2023-05-17T20:19:09.423Z,62.75
2023-05-17T20:21:36.240Z,62.92
2023-05-17T20:24:04.066Z,63.23
2023-05-17T20:26:36.053Z,63.54
2023-05-17T20:29:07.557Z,63.53
2023-05-17T20:31:35.700Z,63.70
2023-05-17T20:34:03.593Z,64.37
2023-05-17T20:36:31.276Z,64.51
2023-05-17T20:38:57.853Z,64.15
2023-05-17T20:41:24.345Z,64.76
2023-05-17T20:43:51.930Z,64.84
2023-05-17T20:46:18.819Z,64.81
2023-05-17T20:48:47.711Z,64.75
2023-05-17T20:51:15.103Z,65.07
2023-05-17T20:53:41.746Z,64.91
2023-05-17T20:56:08.265Z,65.64
2023-05-17T20:58:35.039Z,65.71
2023-05-17T21:01:01.609Z,65.05
2023-05-17T21:03:33.286Z,65.58
2023-05-17T21:06:05.241Z,65.84
2023-05-17T21:08:32.898Z,65.55
2023-05-17T21:11:00.112Z,65.95
2023-05-17T21:13:27.130Z,66.47
2023-05-17T21:15:55.829Z,66.07
2023-05-17T21:18:23.772Z,65.79
2023-05-17T21:20:51.483Z,66.03
2023-05-17T21:23:18.739Z,65.89
2023-05-17T21:25:45.388Z,65.97
2023-05-17T21:28:11.875Z,66.15
2023-05-17T21:30:38.384Z,66.24
2023-05-17T21:33:05.606Z,66.56
2023-05-17T21:35:32.555Z,66.50
2023-05-17T21:37:59.085Z,66.63
2023-05-17T21:40:25.912Z,66.88
2023-05-17T21:42:52.526Z,66.60
2023-05-17T21:45:19.191Z,67.11
2023-05-17T21:47:45.950Z,67.51
2023-05-17T21:50:12.498Z,67.40
2023-05-17T21:52:38.998Z,67.43
2023-05-17T21:55:06.245Z,67.50
2023-05-17T21:57:36.094Z,67.73
2023-05-17T22:00:05.436Z,67.94
2023-05-17T22:02:34.054Z,67.91
2023-05-17T22:05:00.761Z,67.82
2023-05-17T22:07:27.306Z,67.87
2023-05-17T22:09:54.457Z,67.96
2023-05-17T22:12:25.874Z,68.07
2023-05-17T22:14:56.792Z,68.25
2023-05-17T22:17:35.104Z,67.83
2023-05-17T22:20:09.498Z,68.61
2023-05-17T22:22:37.416Z,68.81
2023-05-17T22:25:05.613Z,69.10
2023-05-17T22:27:32.291Z,69.06
2023-05-17T22:29:59.005Z,69.25
2023-05-17T22:32:25.608Z,69.40
2023-05-17T22:34:53.081Z,69.50
2023-05-17T22:37:22.479Z,69.52
2023-05-17T22:39:49.571Z,69.32
2023-05-17T22:42:16.212Z,69.45
2023-05-17T22:44:42.777Z,70.09
2023-05-17T22:47:14.563Z,69.51
2023-05-17T22:49:41.722Z,69.55
2023-05-17T22:52:09.030Z,69.41
2023-05-17T22:54:37.048Z,69.44
2023-05-17T22:57:04.528Z,69.83
2023-05-17T22:59:34.570Z,70.39
2023-05-17T23:02:02.373Z,70.03
2023-05-17T23:04:30.475Z,69.95
2023-05-17T23:07:02.519Z,70.14
2023-05-17T23:09:33.707Z,70.40
2023-05-17T23:12:05.595Z,70.25
2023-05-17T23:14:34.140Z,70.02
2023-05-17T23:17:04.052Z,70.17
2023-05-17T23:19:30.819Z,70.58
2023-05-17T23:22:02.947Z,69.90
2023-05-17T23:24:29.517Z,70.66
2023-05-17T23:26:56.084Z,69.91
2023-05-17T23:29:22.894Z,70.57
2023-05-17T23:31:50.677Z,70.39
2023-05-17T23:34:17.479Z,70.36
2023-05-17T23:36:44.039Z,71.46
2023-05-17T23:39:10.738Z,71.18
2023-05-17T23:41:40.206Z,71.41
2023-05-17T23:44:07.196Z,70.98
2023-05-17T23:46:34.349Z,71.94
2023-05-17T23:49:02.373Z,71.74
2023-05-17T23:51:34.743Z,71.15
2023-05-17T23:54:01.775Z,71.76
2023-05-17T23:56:28.455Z,71.73
2023-05-17T23:58:55.291Z,71.49
